Schillplate — ZDJJ8 — position and weather

sailwx.info

Track history (hours):
 
Tides and Currents Weather Stations Pressure Air Temp Water Temp Dewpoint Dewpoint Depression Visibility Wind Speed Wind Dir Waves Ship Positions

Schillplate

Last reported at 2014-Jul-31 14:33 UTC. Time now 2014-Aug-01 12:02 UTC.
Position N 55°10' E 019°14'.

Length 86 m; draft 3.9 m.

Type: Cargo ship. MMSI: 236111603.

Date/timePositionNaut miles runAvg speedWind from/ knotsBaromVisibWave heightAir tempDewpointWater temp
2014-Jul-31 14:33N 55°10' E 019°14'1110.8
2014-Jul-31 13:34N 54°60' E 019°09'1111.0
2014-Jul-31 12:34N 54°49' E 019°04'1110.6
2014-Jul-31 11:34N 54°39' E 018°57'1010.1
2014-Jul-31 10:33N 54°32' E 018°46'9 8.8
2014-Jul-31 09:33N 54°33' E 018°31'0 0.2
2014-Jul-31 08:33N 54°33' E 018°30'0 0.0
2014-Jul-31 07:33N 54°33' E 018°30'0 0.0
2014-Jul-31 06:33N 54°33' E 018°30'0 0.0
2014-Jul-31 05:33N 54°33' E 018°30'0 0.0
2014-Jul-31 04:33N 54°33' E 018°30'0 0.0
2014-Jul-31 03:33N 54°33' E 018°30'0 0.0
2014-Jul-31 02:33N 54°33' E 018°30'0 0.0
2014-Jul-31 01:33N 54°33' E 018°30'0 0.0
2014-Jul-31 00:33N 54°33' E 018°30'0 0.0
2014-Jul-30 23:33N 54°33' E 018°30'0 0.0
2014-Jul-30 22:33N 54°33' E 018°30'0 0.0
2014-Jul-30 21:33N 54°33' E 018°30'0 0.0
2014-Jul-30 20:33N 54°33' E 018°30'5 5.2
2014-Jul-30 19:33N 54°33' E 018°39'0 0.3
2014-Jul-30 18:33N 54°33' E 018°40'3 2.7
2014-Jul-30 17:33N 54°32' E 018°44'4 4.0
2014-Jul-30 16:33N 54°34' E 018°51'9 9.3
2014-Jul-30 15:33N 54°42' E 018°58'1010.1
2014-Jul-30 14:33N 54°51' E 018°49'1111.0
2014-Jul-30 13:33N 54°57' E 018°33'1110.8
2014-Jul-30 12:33N 54°58' E 018°15'1111.3
2014-Jul-30 11:33N 54°56' E 017°55'1111.5
2014-Jul-30 10:33N 54°55' E 017°35'5211.7
2014-Jul-30 06:04N 54°45' E 016°06'612.0
2014-Jul-30 05:33N 54°44' E 015°55'2411.9
2014-Jul-30 03:33N 54°40' E 015°15'1111.5
2014-Jul-30 02:33N 54°38' E 014°55'1211.5
2014-Jul-30 01:29N 54°36' E 014°34'1211.4
2014-Jul-30 00:25N 54°37' E 014°13'1011.8
2014-Jul-29 23:33N 54°40' E 013°57'1211.9
2014-Jul-29 22:33N 54°44' E 013°37'1212.0
2014-Jul-29 21:33N 54°45' E 013°16'1211.8
2014-Jul-29 20:34N 54°44' E 012°56'1110.7
2014-Jul-29 19:33N 54°42' E 012°38'1110.9
2014-Jul-29 18:33N 54°36' E 012°22'1110.7
2014-Jul-29 17:33N 54°27' E 012°13'1211.7
2014-Jul-29 16:34N 54°17' E 012°03'8 8.1
2014-Jul-29 15:32N 54°09' E 012°06'0 0.0
2014-Jul-29 14:29N 54°09' E 012°06'0 0.0
2014-Jul-29 13:32N 54°09' E 012°06'0 0.0
2014-Jul-29 12:29N 54°09' E 012°06'0 0.0
2014-Jul-29 11:30N 54°09' E 012°06'3 3.5
2014-Jul-29 10:32N 54°12' E 012°05'1010.6
2014-Jul-29 09:33N 54°20' E 011°54'1111.2
2014-Jul-29 08:33N 54°27' E 011°39'1211.9
2014-Jul-29 07:33N 54°32' E 011°20'1211.5
2014-Jul-29 06:33N 54°35' E 011°01'1111.2
2014-Jul-29 05:33N 54°34' E 010°41'1111.0
2014-Jul-29 04:33N 54°31' E 010°24'14 6.5
2014-Jul-29 02:22N 54°22' E 010°04'18 6.1
2014-Jul-28 23:23N 54°14' E 009°36'7 8.3
2014-Jul-28 22:31N 54°10' E 009°26'6 5.6
2014-Jul-28 21:32N 54°06' E 009°20'7 7.4
2014-Jul-28 20:33N 53°59' E 009°16'7 6.9
2014-Jul-28 19:33N 53°54' E 009°09'3 3.1
2014-Jul-28 18:33N 53°52' E 009°04'7 7.4
2014-Jul-28 17:34N 53°50' E 008°52'7 7.0
2014-Jul-28 16:33N 53°54' E 008°42'7 7.4
2014-Jul-28 15:33N 53°58' E 008°32'10 8.4
2014-Jul-28 14:24N 53°59' E 008°15'1210.2
2014-Jul-28 13:14N 53°58' E 007°55'6711.7
2014-Jul-28 07:33N 53°42' E 006°06'1212.0
2014-Jul-28 06:33N 53°38' E 005°47'1212.1
2014-Jul-28 05:33N 53°34' E 005°27'1211.9
2014-Jul-28 04:33N 53°30' E 005°08'1111.2
2014-Jul-28 03:33N 53°27' E 004°51'58 9.7
2014-Jul-27 21:32N 52°38' E 003°56'10 9.8
2014-Jul-27 20:33N 52°31' E 003°45'1110.2
2014-Jul-27 19:26N 52°23' E 003°32'910.7
2014-Jul-27 18:33N 52°17' E 003°21'1211.2
2014-Jul-27 17:27N 52°08' E 003°07'3612.2
2014-Jul-27 14:29N 51°40' E 002°29'1212.7
2014-Jul-27 13:33N 51°31' E 002°16'1211.8
2014-Jul-27 12:33N 51°21' E 002°07'1111.1
2014-Jul-27 11:33N 51°11' E 001°58'1212.0
2014-Jul-27 10:33N 51°04' E 001°43'3310.2
2014-Jul-27 07:17N 50°37' E 001°12'810.2
2014-Jul-27 06:28N 50°32' E 001°01'1010.0
2014-Jul-27 05:26N 50°27' E 000°47'910.0
2014-Jul-27 04:33N 50°25' E 000°33'1010.0
2014-Jul-27 03:33N 50°23' E 000°18'14 9.9
2014-Jul-27 02:10N 50°19' W 000°03'1010.0
2014-Jul-27 01:11N 50°16' W 000°17'710.0
2014-Jul-27 00:29N 50°14' W 000°28'18511.6
2014-Jul-26 08:33N 49°04' W 004°53'1010.3
2014-Jul-26 07:33N 48°59' W 005°06'1110.8
2014-Jul-26 06:34N 48°54' W 005°20'1111.2
2014-Jul-26 05:34N 48°48' W 005°35'1111.4
2014-Jul-26 04:33N 48°38' W 005°44'1211.8
2014-Jul-26 03:33N 48°27' W 005°51'1211.7
2014-Jul-26 02:33N 48°16' W 005°57'1212.0
2014-Jul-26 01:34N 48°05' W 006°03'1212.0
2014-Jul-26 00:34N 47°54' W 006°09'1211.5
2014-Jul-25 23:33N 47°43' W 006°16'1111.2
2014-Jul-25 22:34N 47°33' W 006°22'231 5.3
2014-Jul-24 02:32N 43°42' W 005°49'1010.7
2014-Jul-24 01:33N 43°34' W 005°41'1 0.0
2014-Jul-23 11:15N 43°34' W 005°42'0 0.0
2014-Jul-23 10:33N 43°34' W 005°42'0 0.2
2014-Jul-23 09:33N 43°34' W 005°41'9 9.3
2014-Jul-23 08:33N 43°41' W 005°34'1211.8
2014-Jul-23 07:33N 43°51' W 005°25'14812.2
2014-Jul-22 19:25N 45°56' W 003°32'1212.1
2014-Jul-22 18:24N 46°06' W 003°23'2312.5
2014-Jul-22 16:32N 46°26' W 003°05'1312.3
2014-Jul-22 15:28N 46°37' W 002°55'1212.5
2014-Jul-22 14:30N 46°47' W 002°45'39 4.2
2014-Jul-22 05:08N 47°18' W 002°09'0 0.0
2014-Jul-22 03:14N 47°18' W 002°09'0 0.0
2014-Jul-22 02:32N 47°18' W 002°09'  
Track history (hours):
 
Tides and Currents Weather Stations Pressure Air Temp Water Temp Dewpoint Dewpoint Depression Visibility Wind Speed Wind Dir Waves Ship Positions

Schillplate

Last reported at 2014-Jul-31 14:33 UTC. Time now 2014-Aug-01 12:02 UTC.
Position N 55°10' E 019°14'.

Length 86 m; draft 3.9 m.

Type: Cargo ship. MMSI: 236111603.

Date/timePositionNaut miles runAvg speedWind from/ knotsBaromVisibWave heightAir tempDewpointWater temp
2014-Jul-31 14:33N 55°10' E 019°14'1110.8
2014-Jul-31 13:34N 54°60' E 019°09'1111.0
2014-Jul-31 12:34N 54°49' E 019°04'1110.6
2014-Jul-31 11:34N 54°39' E 018°57'1010.1
2014-Jul-31 10:33N 54°32' E 018°46'9 8.8
2014-Jul-31 09:33N 54°33' E 018°31'0 0.2
2014-Jul-31 08:33N 54°33' E 018°30'0 0.0
2014-Jul-31 07:33N 54°33' E 018°30'0 0.0
2014-Jul-31 06:33N 54°33' E 018°30'0 0.0
2014-Jul-31 05:33N 54°33' E 018°30'0 0.0
2014-Jul-31 04:33N 54°33' E 018°30'0 0.0
2014-Jul-31 03:33N 54°33' E 018°30'0 0.0
2014-Jul-31 02:33N 54°33' E 018°30'0 0.0
2014-Jul-31 01:33N 54°33' E 018°30'0 0.0
2014-Jul-31 00:33N 54°33' E 018°30'0 0.0
2014-Jul-30 23:33N 54°33' E 018°30'0 0.0
2014-Jul-30 22:33N 54°33' E 018°30'0 0.0
2014-Jul-30 21:33N 54°33' E 018°30'0 0.0
2014-Jul-30 20:33N 54°33' E 018°30'5 5.2
2014-Jul-30 19:33N 54°33' E 018°39'0 0.3
2014-Jul-30 18:33N 54°33' E 018°40'3 2.7
2014-Jul-30 17:33N 54°32' E 018°44'4 4.0
2014-Jul-30 16:33N 54°34' E 018°51'9 9.3
2014-Jul-30 15:33N 54°42' E 018°58'1010.1
2014-Jul-30 14:33N 54°51' E 018°49'1111.0
2014-Jul-30 13:33N 54°57' E 018°33'1110.8
2014-Jul-30 12:33N 54°58' E 018°15'1111.3
2014-Jul-30 11:33N 54°56' E 017°55'1111.5
2014-Jul-30 10:33N 54°55' E 017°35'5211.7
2014-Jul-30 06:04N 54°45' E 016°06'612.0
2014-Jul-30 05:33N 54°44' E 015°55'2411.9
2014-Jul-30 03:33N 54°40' E 015°15'1111.5
2014-Jul-30 02:33N 54°38' E 014°55'1211.5
2014-Jul-30 01:29N 54°36' E 014°34'1211.4
2014-Jul-30 00:25N 54°37' E 014°13'1011.8
2014-Jul-29 23:33N 54°40' E 013°57'1211.9
2014-Jul-29 22:33N 54°44' E 013°37'1212.0
2014-Jul-29 21:33N 54°45' E 013°16'1211.8
2014-Jul-29 20:34N 54°44' E 012°56'1110.7
2014-Jul-29 19:33N 54°42' E 012°38'1110.9
2014-Jul-29 18:33N 54°36' E 012°22'1110.7
2014-Jul-29 17:33N 54°27' E 012°13'1211.7
2014-Jul-29 16:34N 54°17' E 012°03'8 8.1
2014-Jul-29 15:32N 54°09' E 012°06'0 0.0
2014-Jul-29 14:29N 54°09' E 012°06'0 0.0
2014-Jul-29 13:32N 54°09' E 012°06'0 0.0
2014-Jul-29 12:29N 54°09' E 012°06'0 0.0
2014-Jul-29 11:30N 54°09' E 012°06'3 3.5
2014-Jul-29 10:32N 54°12' E 012°05'1010.6
2014-Jul-29 09:33N 54°20' E 011°54'1111.2
2014-Jul-29 08:33N 54°27' E 011°39'1211.9
2014-Jul-29 07:33N 54°32' E 011°20'1211.5
2014-Jul-29 06:33N 54°35' E 011°01'1111.2
2014-Jul-29 05:33N 54°34' E 010°41'1111.0
2014-Jul-29 04:33N 54°31' E 010°24'14 6.5
2014-Jul-29 02:22N 54°22' E 010°04'18 6.1
2014-Jul-28 23:23N 54°14' E 009°36'7 8.3
2014-Jul-28 22:31N 54°10' E 009°26'6 5.6
2014-Jul-28 21:32N 54°06' E 009°20'7 7.4
2014-Jul-28 20:33N 53°59' E 009°16'7 6.9
2014-Jul-28 19:33N 53°54' E 009°09'3 3.1
2014-Jul-28 18:33N 53°52' E 009°04'7 7.4
2014-Jul-28 17:34N 53°50' E 008°52'7 7.0
2014-Jul-28 16:33N 53°54' E 008°42'7 7.4
2014-Jul-28 15:33N 53°58' E 008°32'10 8.4
2014-Jul-28 14:24N 53°59' E 008°15'1210.2
2014-Jul-28 13:14N 53°58' E 007°55'6711.7
2014-Jul-28 07:33N 53°42' E 006°06'1212.0
2014-Jul-28 06:33N 53°38' E 005°47'1212.1
2014-Jul-28 05:33N 53°34' E 005°27'1211.9
2014-Jul-28 04:33N 53°30' E 005°08'1111.2
2014-Jul-28 03:33N 53°27' E 004°51'58 9.7
2014-Jul-27 21:32N 52°38' E 003°56'10 9.8
2014-Jul-27 20:33N 52°31' E 003°45'1110.2
2014-Jul-27 19:26N 52°23' E 003°32'910.7
2014-Jul-27 18:33N 52°17' E 003°21'1211.2
2014-Jul-27 17:27N 52°08' E 003°07'3612.2
2014-Jul-27 14:29N 51°40' E 002°29'1212.7
2014-Jul-27 13:33N 51°31' E 002°16'1211.8
2014-Jul-27 12:33N 51°21' E 002°07'1111.1
2014-Jul-27 11:33N 51°11' E 001°58'1212.0
2014-Jul-27 10:33N 51°04' E 001°43'3310.2
2014-Jul-27 07:17N 50°37' E 001°12'810.2
2014-Jul-27 06:28N 50°32' E 001°01'1010.0
2014-Jul-27 05:26N 50°27' E 000°47'910.0
2014-Jul-27 04:33N 50°25' E 000°33'1010.0
2014-Jul-27 03:33N 50°23' E 000°18'14 9.9
2014-Jul-27 02:10N 50°19' W 000°03'1010.0
2014-Jul-27 01:11N 50°16' W 000°17'710.0
2014-Jul-27 00:29N 50°14' W 000°28'18511.6
2014-Jul-26 08:33N 49°04' W 004°53'1010.3
2014-Jul-26 07:33N 48°59' W 005°06'1110.8
2014-Jul-26 06:34N 48°54' W 005°20'1111.2
2014-Jul-26 05:34N 48°48' W 005°35'1111.4
2014-Jul-26 04:33N 48°38' W 005°44'1211.8
2014-Jul-26 03:33N 48°27' W 005°51'1211.7
2014-Jul-26 02:33N 48°16' W 005°57'1212.0
2014-Jul-26 01:34N 48°05' W 006°03'1212.0
2014-Jul-26 00:34N 47°54' W 006°09'1211.5
2014-Jul-25 23:33N 47°43' W 006°16'1111.2
2014-Jul-25 22:34N 47°33' W 006°22'231 5.3
2014-Jul-24 02:32N 43°42' W 005°49'1010.7
2014-Jul-24 01:33N 43°34' W 005°41'1 0.0
2014-Jul-23 11:15N 43°34' W 005°42'0 0.0
2014-Jul-23 10:33N 43°34' W 005°42'0 0.2
2014-Jul-23 09:33N 43°34' W 005°41'9 9.3
2014-Jul-23 08:33N 43°41' W 005°34'1211.8
2014-Jul-23 07:33N 43°51' W 005°25'14812.2
2014-Jul-22 19:25N 45°56' W 003°32'1212.1
2014-Jul-22 18:24N 46°06' W 003°23'2312.5
2014-Jul-22 16:32N 46°26' W 003°05'1312.3
2014-Jul-22 15:28N 46°37' W 002°55'1212.5
2014-Jul-22 14:30N 46°47' W 002°45'39 4.2
2014-Jul-22 05:08N 47°18' W 002°09'0 0.0
2014-Jul-22 03:14N 47°18' W 002°09'0 0.0
2014-Jul-22 02:32N 47°18' W 002°09'  

Dump ship's entire track history